KPMU

Panola County Airport

Batesville, Mississippi, USA
METAR KPMU 200055Z AUTO 00000KT 10SM OVC042 05/M08 A3021 RMK AO2 T00511084
Observed Flight Rules
Jan-20 @ 00:55 UTC (28 minutes ago) Visual Flight Rules
Wind Visibility Clouds
Calm 10 miles
  • Overcast at 4,200' AGL
Temperatures Readings
Current 5°C / 41°F
Dewpoint -8°C / 18°F
Humidity 39%
Altimeter 30.21" Hg
Pressure 1023 hPa
Elevation 67
METAR KPMU 200055Z AUTO 00000KT 10SM OVC042 05/M08 A3021 RMK AO2 T00511084
Observed Flight Rules
Jan-20 @ 00:55 UTC
(28 minutes ago)
VFR
Wind Visibility
Calm 10 miles
Clouds
  • Overcast at 4,200' AGL
Temperature Dewpoint
5°C / 41°F -8°C / 18°F
Humidity Altimeter Pressure
39% 30.21" Hg 1023 hPa